Mendocino, California
Current Conditions -  °F | °C
As of 3:15 PM on Saturday 25 Oct 2014 (Local Time) from KUKI Reporting Station
Overcast Overcast  
Wind Chill: 63°   Ceiling: 3200
Heat Index: 63°   Visibility: 10mi
Dew Point: 54°   Wind: 9mph
Humidity: 72%   Direction: 130°SE
Pressure: 30"   Gusts: NA
Location:  39.31°N, 123.8°W
Report Text: KUKI 252215Z AUTO 13008KT 10SM SCT027 BKN032 OVC050 17/12 A3000 RMK AO2 T01720122
Loading
Personal Weather Stations






























Interactive Weather Map
Tropical Storm Tracking
New forecast layout! Learn more

10-Day Weather Forecast

Advertisements
Track Severe Weather on mobile